Time;durP1;ratioP1;P1;durP2;ratioP2;P2;SDS_P1;SDS_P2;PMS_P1;PMS_P2;Temp;Humidity;BMP_temperature;BMP_pressure;BME280_temperature;BME280_humidity;BME280_pressure;Samples;Min_cycle;Max_cycle;Signal;HPM_P1;HPM_P2
2022/01/24 00:01:42;;;;;;;44.03;16.23;;;;;;;;;;770471;180;919761;-65
2022/01/24 00:04:08;;;;;;;34.70;17.93;;;;;;;;;;773756;180;919680;-64
2022/01/24 00:06:34;;;;;;;28.33;16.60;;;;;;;;;;773619;176;1061099;-64
2022/01/24 00:08:59;;;;;;;35.58;16.40;;;;;;;;;;774767;178;921882;-64
2022/01/24 00:11:36;;;;;;;30.13;16.83;;;;;;;;;;763287;178;919666;-64
2022/01/24 00:14:16;;;;;;;46.10;19.10;;;;;;;;;;772917;177;916390;-64
2022/01/24 00:16:45;;;;;;;32.20;14.80;;;;;;;;;;773580;179;916368;-65
2022/01/24 00:26:49;;;;;;;30.00;18.13;;;;;;;;;;762542;178;916056;-65
2022/01/24 00:29:14;;;;;;;25.93;16.47;;;;;;;;;;758033;180;917458;-64
2022/01/24 00:31:40;;;;;;;42.63;18.87;;;;;;;;;;778065;179;914953;-64
2022/01/24 00:34:06;;;;;;;35.47;17.67;;;;;;;;;;770417;177;1015195;-65
2022/01/24 00:36:32;;;;;;;34.20;17.75;;;;;;;;;;765336;180;916017;-63
2022/01/24 00:38:58;;;;;;;27.93;15.50;;;;;;;;;;773732;177;915565;-63
2022/01/24 00:41:24;;;;;;;34.50;16.47;;;;;;;;;;776899;178;913643;-63
2022/01/24 00:46:40;;;;;;;37.40;16.17;;;;;;;;;;762480;182;641331;-64
2022/01/24 00:49:24;;;;;;;39.22;17.35;;;;;;;;;;759716;184;929201;-63
2022/01/24 00:56:42;;;;;;;36.17;15.57;;;;;;;;;;779966;180;919356;-64
2022/01/24 00:59:08;;;;;;;40.23;16.03;;;;;;;;;;773082;179;918880;-63
2022/01/24 01:01:34;;;;;;;31.60;16.40;;;;;;;;;;771391;180;918033;-63
2022/01/24 01:04:00;;;;;;;36.17;15.33;;;;;;;;;;779653;179;919918;-64
2022/01/24 01:06:26;;;;;;;26.23;13.53;;;;;;;;;;772669;180;919188;-64
2022/01/24 01:18:58;;;;;;;38.27;15.27;;;;;;;;;;768809;179;919797;-64
2022/01/24 01:21:24;;;;;;;28.27;14.70;;;;;;;;;;771731;180;1225811;-64
2022/01/24 01:23:52;;;;;;;49.37;19.03;;;;;;;;;;779265;181;919589;-64
2022/01/24 01:26:28;;;;;;;38.07;16.17;;;;;;;;;;773538;180;943202;-64
2022/01/24 01:28:58;;;;;;;31.27;17.50;;;;;;;;;;773667;177;919251;-64
2022/01/24 01:31:28;;;;;;;31.75;17.42;;;;;;;;;;775127;178;918562;-65
2022/01/24 01:33:56;;;;;;;24.67;13.10;;;;;;;;;;771221;180;919128;-64
2022/01/24 01:36:18;;;;;;;33.73;16.17;;;;;;;;;;770932;180;918638;-64
2022/01/24 01:56:37;;;;;;;35.83;21.23;;;;;;;;;;767094;178;918749;-65
2022/01/24 01:59:03;;;;;;;42.33;21.27;;;;;;;;;;768965;180;919390;-64
2022/01/24 02:01:29;;;;;;;37.83;22.05;;;;;;;;;;775587;177;918851;-65
2022/01/24 02:03:56;;;;;;;46.27;21.43;;;;;;;;;;765628;180;919883;-65
2022/01/24 02:06:21;;;;;;;38.97;21.20;;;;;;;;;;779454;177;920330;-64
2022/01/24 02:08:47;;;;;;;39.40;22.73;;;;;;;;;;772250;180;919709;-64
2022/01/24 02:11:15;;;;;;;39.00;22.00;;;;;;;;;;775698;177;918947;-65
2022/01/24 02:13:40;;;;;;;38.30;20.50;;;;;;;;;;773427;177;919262;-65
2022/01/24 02:16:22;;;;;;;41.43;22.07;;;;;;;;;;774386;180;918649;-65
2022/01/24 02:18:52;;;;;;;36.77;21.60;;;;;;;;;;762914;179;1013428;-65
2022/01/24 02:21:13;;;;;;;40.45;21.90;;;;;;;;;;765432;181;919452;-64
2022/01/24 02:23:40;;;;;;;40.57;21.77;;;;;;;;;;767934;178;920233;-65
2022/01/24 02:26:03;;;;;;;44.93;23.03;;;;;;;;;;780416;178;881062;-65
2022/01/24 02:28:32;;;;;;;50.93;24.90;;;;;;;;;;775433;179;918697;-66
2022/01/24 02:33:37;;;;;;;50.67;25.17;;;;;;;;;;770526;181;919413;-65
2022/01/24 02:36:03;;;;;;;46.27;24.03;;;;;;;;;;776076;179;918399;-66
2022/01/24 02:38:47;;;;;;;41.33;24.43;;;;;;;;;;767314;179;918981;-66
2022/01/24 02:48:44;;;;;;;46.13;27.13;;;;;;;;;;776954;177;919583;-66
2022/01/24 02:51:28;;;;;;;56.80;27.73;;;;;;;;;;763385;180;919697;-67
2022/01/24 02:53:40;;;;;;;48.27;28.57;;;;;;;;;;756078;181;919436;-67
2022/01/24 02:56:06;;;;;;;60.03;26.90;;;;;;;;;;766094;180;918806;-66
2022/01/24 02:58:32;;;;;;;49.57;22.50;;;;;;;;;;768670;181;940427;-65
2022/01/24 03:00:57;;;;;;;51.07;25.70;;;;;;;;;;759657;180;919049;-66
2022/01/24 03:03:23;;;;;;;52.08;26.75;;;;;;;;;;772545;180;919393;-66
2022/01/24 03:05:49;;;;;;;45.87;26.50;;;;;;;;;;776780;178;1033605;-66
2022/01/24 03:08:15;;;;;;;43.03;24.45;;;;;;;;;;757415;182;987517;-66
2022/01/24 03:10:44;;;;;;;50.63;25.40;;;;;;;;;;772921;181;919099;-66
2022/01/24 03:15:52;;;;;;;44.93;26.03;;;;;;;;;;772029;180;918463;-65
2022/01/24 03:18:18;;;;;;;49.30;27.00;;;;;;;;;;778416;178;918933;-65
2022/01/24 03:20:44;;;;;;;59.67;28.60;;;;;;;;;;775421;180;919190;-66
2022/01/24 03:23:10;;;;;;;50.47;26.00;;;;;;;;;;773108;180;918097;-65
2022/01/24 03:25:35;;;;;;;52.93;25.83;;;;;;;;;;779818;180;919005;-66
2022/01/24 03:28:03;;;;;;;49.10;26.90;;;;;;;;;;774399;179;919184;-66
2022/01/24 03:30:27;;;;;;;53.93;28.03;;;;;;;;;;771612;181;918703;-65
2022/01/24 03:32:53;;;;;;;55.33;30.90;;;;;;;;;;767546;182;920225;-65
2022/01/24 03:35:19;;;;;;;68.50;31.33;;;;;;;;;;770306;179;919312;-65
2022/01/24 03:37:45;;;;;;;69.10;31.87;;;;;;;;;;764881;181;1021738;-67
2022/01/24 03:40:11;;;;;;;60.63;31.40;;;;;;;;;;775643;179;918734;-64
2022/01/24 03:42:36;;;;;;;67.37;30.57;;;;;;;;;;776183;181;879100;-66
2022/01/24 03:45:05;;;;;;;65.50;32.20;;;;;;;;;;772639;180;925977;-66
2022/01/24 03:47:42;;;;;;;52.87;29.60;;;;;;;;;;765202;178;918761;-64
2022/01/24 03:49:56;;;;;;;66.03;32.23;;;;;;;;;;777151;181;919858;-65
2022/01/24 03:52:22;;;;;;;55.27;30.93;;;;;;;;;;770926;179;919435;-65
2022/01/24 03:54:48;;;;;;;55.40;30.50;;;;;;;;;;766336;178;918937;-65
2022/01/24 03:57:13;;;;;;;103.73;47.17;;;;;;;;;;780363;180;917703;-66
2022/01/24 03:59:39;;;;;;;62.10;34.80;;;;;;;;;;763341;181;919048;-66
2022/01/24 04:02:05;;;;;;;63.23;33.00;;;;;;;;;;765396;179;919867;-67
2022/01/24 04:04:31;;;;;;;58.80;33.93;;;;;;;;;;772987;180;919290;-65
2022/01/24 04:06:57;;;;;;;74.13;37.17;;;;;;;;;;768667;181;918799;-65
2022/01/24 04:09:23;;;;;;;138.27;64.93;;;;;;;;;;757477;181;920832;-65
2022/01/24 04:11:53;;;;;;;121.50;63.37;;;;;;;;;;772322;178;920290;-65
2022/01/24 04:16:52;;;;;;;117.43;60.50;;;;;;;;;;763385;180;920630;-66
2022/01/24 04:21:18;;;;;;;106.07;57.40;;;;;;;;;;772077;181;918170;-65
2022/01/24 04:21:47;;;;;;;74.63;43.83;;;;;;;;;;765053;180;920288;-65
2022/01/24 04:24:11;;;;;;;74.63;36.37;;;;;;;;;;771107;179;920273;-65
2022/01/24 04:26:33;;;;;;;78.13;39.10;;;;;;;;;;770916;177;913817;-65
2022/01/24 04:28:59;;;;;;;62.87;36.50;;;;;;;;;;771475;177;913572;-65
2022/01/24 04:31:25;;;;;;;71.83;35.80;;;;;;;;;;773571;178;918940;-66
2022/01/24 04:33:51;;;;;;;74.67;38.70;;;;;;;;;;754428;181;916439;-65
2022/01/24 04:36:17;;;;;;;64.23;35.17;;;;;;;;;;768870;178;918723;-65
2022/01/24 04:38:43;;;;;;;74.23;33.20;;;;;;;;;;774669;177;919177;-65
2022/01/24 04:41:17;;;;;;;69.33;36.00;;;;;;;;;;765087;181;919132;-65
2022/01/24 04:46:16;;;;;;;87.87;41.40;;;;;;;;;;771637;180;919725;-64
2022/01/24 04:50:37;;;;;;;68.80;37.03;;;;;;;;;;776210;180;919758;-65
2022/01/24 04:51:14;;;;;;;68.23;40.20;;;;;;;;;;777800;177;931084;-65
2022/01/24 04:56:14;;;;;;;67.37;33.67;;;;;;;;;;774844;178;918838;-65
2022/01/24 04:58:40;;;;;;;75.17;34.87;;;;;;;;;;771627;180;921878;-65
2022/01/24 05:01:05;;;;;;;66.47;32.77;;;;;;;;;;772231;180;917850;-65
2022/01/24 05:03:31;;;;;;;80.93;37.50;;;;;;;;;;772588;180;918705;-66
2022/01/24 05:05:57;;;;;;;63.33;38.00;;;;;;;;;;775563;180;918994;-66
2022/01/24 05:08:23;;;;;;;74.13;41.70;;;;;;;;;;781550;180;919042;-65
2022/01/24 05:10:58;;;;;;;86.68;44.88;;;;;;;;;;773169;180;918355;-66
2022/01/24 05:23:35;;;;;;;181.80;94.00;;;;;;;;;;776338;180;640239;-66
2022/01/24 05:26:01;;;;;;;71.00;40.20;;;;;;;;;;778249;177;631217;-66
2022/01/24 05:28:27;;;;;;;70.10;39.00;;;;;;;;;;778064;178;633999;-65
2022/01/24 05:30:53;;;;;;;109.33;55.37;;;;;;;;;;781674;180;624350;-66
2022/01/24 05:33:18;;;;;;;80.00;42.90;;;;;;;;;;776582;180;917104;-66
2022/01/24 05:35:44;;;;;;;67.33;36.90;;;;;;;;;;773800;180;919116;-65
2022/01/24 05:38:11;;;;;;;81.40;41.65;;;;;;;;;;777729;180;1227703;-65
2022/01/24 05:40:37;;;;;;;73.62;39.72;;;;;;;;;;775108;182;870594;-65
2022/01/24 05:43:03;;;;;;;181.03;89.70;;;;;;;;;;769384;180;919683;-66
2022/01/24 05:45:29;;;;;;;69.23;40.30;;;;;;;;;;770104;180;918464;-66
2022/01/24 05:47:55;;;;;;;85.57;40.77;;;;;;;;;;773024;180;916511;-66
2022/01/24 05:50:21;;;;;;;88.83;43.47;;;;;;;;;;772316;179;918956;-66
2022/01/24 05:52:47;;;;;;;102.97;53.53;;;;;;;;;;775336;181;920128;-66
2022/01/24 05:55:13;;;;;;;101.73;53.73;;;;;;;;;;782900;180;629978;-67
2022/01/24 05:57:39;;;;;;;103.73;55.27;;;;;;;;;;773984;179;920278;-66
2022/01/24 06:00:06;;;;;;;101.17;47.33;;;;;;;;;;767496;180;918716;-65
2022/01/24 06:02:31;;;;;;;86.90;42.27;;;;;;;;;;779324;178;694129;-66
2022/01/24 06:04:57;;;;;;;89.27;44.27;;;;;;;;;;772033;181;627789;-67
2022/01/24 06:07:23;;;;;;;79.10;40.83;;;;;;;;;;772178;177;638588;-67
2022/01/24 06:09:49;;;;;;;73.40;40.57;;;;;;;;;;775843;177;918850;-66
2022/01/24 06:12:15;;;;;;;80.07;40.97;;;;;;;;;;777396;180;922384;-65
2022/01/24 06:14:41;;;;;;;80.00;38.77;;;;;;;;;;774777;180;919316;-66
2022/01/24 06:17:08;;;;;;;66.10;36.43;;;;;;;;;;768927;180;918472;-66
2022/01/24 06:19:32;;;;;;;68.80;37.33;;;;;;;;;;774874;180;919118;-66
2022/01/24 06:21:58;;;;;;;75.97;37.60;;;;;;;;;;766375;180;919494;-67
2022/01/24 06:24:24;;;;;;;69.90;35.83;;;;;;;;;;772370;177;918370;-67
2022/01/24 06:26:50;;;;;;;67.40;35.10;;;;;;;;;;773033;177;918878;-66
2022/01/24 06:29:16;;;;;;;85.47;39.40;;;;;;;;;;764795;179;942940;-67
2022/01/24 06:31:42;;;;;;;66.30;37.43;;;;;;;;;;773858;178;919272;-66
2022/01/24 06:34:07;;;;;;;69.00;38.23;;;;;;;;;;774213;179;1020414;-66
2022/01/24 06:36:33;;;;;;;66.50;33.80;;;;;;;;;;779885;177;918551;-66
2022/01/24 06:39:01;;;;;;;82.83;39.23;;;;;;;;;;766410;180;917503;-66
2022/01/24 06:41:31;;;;;;;63.40;35.10;;;;;;;;;;770710;178;1020802;-66
2022/01/24 06:43:52;;;;;;;62.83;34.20;;;;;;;;;;782981;180;918302;-66
2022/01/24 06:46:18;;;;;;;77.10;36.70;;;;;;;;;;770686;178;919602;-66
2022/01/24 06:48:43;;;;;;;70.43;36.70;;;;;;;;;;764521;180;919540;-66
2022/01/24 06:51:10;;;;;;;66.13;35.77;;;;;;;;;;763353;178;917054;-66
2022/01/24 06:53:36;;;;;;;79.90;39.17;;;;;;;;;;771231;180;921590;-66
2022/01/24 06:56:01;;;;;;;88.57;38.43;;;;;;;;;;770897;178;1125189;-67
2022/01/24 06:58:28;;;;;;;85.43;38.78;;;;;;;;;;771615;178;918320;-66
2022/01/24 07:00:54;;;;;;;75.13;38.03;;;;;;;;;;773689;180;918770;-66
2022/01/24 07:03:19;;;;;;;91.73;38.23;;;;;;;;;;772415;179;918825;-67
2022/01/24 07:05:45;;;;;;;78.97;39.40;;;;;;;;;;766815;180;939130;-67
2022/01/24 07:08:12;;;;;;;74.67;38.13;;;;;;;;;;769581;178;918661;-66
2022/01/24 07:10:37;;;;;;;94.60;42.60;;;;;;;;;;773054;178;919512;-67
2022/01/24 07:13:03;;;;;;;80.07;38.47;;;;;;;;;;773984;179;918868;-67
2022/01/24 07:15:34;;;;;;;74.10;39.30;;;;;;;;;;780847;180;918872;-66
2022/01/24 07:18:13;;;;;;;85.37;43.33;;;;;;;;;;767736;180;1020959;-67
2022/01/24 07:20:23;;;;;;;85.97;43.33;;;;;;;;;;769984;180;915536;-67
2022/01/24 07:22:49;;;;;;;85.27;42.03;;;;;;;;;;776619;179;919238;-66
2022/01/24 07:25:15;;;;;;;101.27;48.20;;;;;;;;;;777232;180;918768;-68
2022/01/24 07:27:41;;;;;;;100.80;49.10;;;;;;;;;;775838;177;919193;-67
2022/01/24 07:30:07;;;;;;;118.13;55.40;;;;;;;;;;771097;180;919345;-67
2022/01/24 07:32:34;;;;;;;107.57;57.60;;;;;;;;;;768619;181;919004;-66
2022/01/24 07:35:00;;;;;;;122.03;59.23;;;;;;;;;;773370;179;919920;-65
2022/01/24 07:37:26;;;;;;;134.77;60.20;;;;;;;;;;771997;179;958430;-66
2022/01/24 07:39:52;;;;;;;147.43;68.70;;;;;;;;;;772358;177;918231;-66
2022/01/24 07:42:28;;;;;;;162.13;75.17;;;;;;;;;;763180;181;917447;-66
2022/01/24 07:44:44;;;;;;;186.07;85.03;;;;;;;;;;768578;180;919666;-68
2022/01/24 07:47:10;;;;;;;168.10;76.80;;;;;;;;;;773037;177;914823;-67
2022/01/24 07:49:36;;;;;;;190.60;70.70;;;;;;;;;;773639;180;919422;-66
2022/01/24 07:52:02;;;;;;;150.50;73.63;;;;;;;;;;760368;181;916032;-64
2022/01/24 07:54:28;;;;;;;163.07;73.60;;;;;;;;;;774800;179;914465;-66
2022/01/24 07:56:54;;;;;;;193.23;76.53;;;;;;;;;;778628;177;913924;-67
2022/01/24 07:59:20;;;;;;;156.30;72.87;;;;;;;;;;764065;178;917469;-66
2022/01/24 08:01:45;;;;;;;174.97;76.90;;;;;;;;;;772931;178;919565;-66
2022/01/24 08:04:11;;;;;;;168.00;63.60;;;;;;;;;;778914;178;915063;-66
2022/01/24 08:06:37;;;;;;;175.90;72.17;;;;;;;;;;766635;178;923389;-66
2022/01/24 08:09:05;;;;;;;176.53;67.80;;;;;;;;;;766178;179;912812;-66
2022/01/24 08:11:29;;;;;;;170.20;68.57;;;;;;;;;;764856;178;915550;-66
2022/01/24 08:13:55;;;;;;;216.27;90.00;;;;;;;;;;777643;180;920062;-66
2022/01/24 08:16:21;;;;;;;192.40;86.97;;;;;;;;;;771609;178;919282;-66
2022/01/24 08:18:51;;;;;;;197.80;83.67;;;;;;;;;;770246;178;918429;-65
2022/01/24 08:21:12;;;;;;;191.47;86.80;;;;;;;;;;777829;178;918741;-65
2022/01/24 08:23:38;;;;;;;180.00;84.60;;;;;;;;;;767422;180;1051202;-66
2022/01/24 08:26:04;;;;;;;188.63;92.63;;;;;;;;;;775674;180;920790;-65
2022/01/24 08:28:30;;;;;;;190.27;83.87;;;;;;;;;;780251;180;921993;-64
2022/01/24 08:30:56;;;;;;;183.48;83.07;;;;;;;;;;774627;179;921642;-64
2022/01/24 08:33:22;;;;;;;164.73;79.80;;;;;;;;;;771950;178;919064;-65
2022/01/24 08:35:48;;;;;;;183.13;81.00;;;;;;;;;;767931;181;919509;-64
2022/01/24 08:38:13;;;;;;;203.18;100.82;;;;;;;;;;774125;180;918668;-63
2022/01/24 08:40:41;;;;;;;216.37;107.20;;;;;;;;;;773316;177;920176;-63
2022/01/24 08:43:07;;;;;;;202.93;87.00;;;;;;;;;;774366;180;919201;-62
2022/01/24 08:45:48;;;;;;;209.83;92.83;;;;;;;;;;764817;181;918773;-62
2022/01/24 08:48:11;;;;;;;216.10;100.57;;;;;;;;;;770842;181;919484;-63
2022/01/24 08:50:37;;;;;;;204.03;86.13;;;;;;;;;;766621;180;918229;-62
2022/01/24 08:53:03;;;;;;;164.50;78.90;;;;;;;;;;772191;178;917224;-62
2022/01/24 08:55:29;;;;;;;164.20;77.37;;;;;;;;;;778179;178;920631;-63
2022/01/24 08:57:55;;;;;;;168.67;83.33;;;;;;;;;;770819;180;1021241;-61
2022/01/24 09:00:21;;;;;;;166.13;85.67;;;;;;;;;;769658;180;1021445;-62
2022/01/24 09:02:47;;;;;;;161.40;75.90;;;;;;;;;;771326;181;918803;-62
2022/01/24 09:05:13;;;;;;;175.07;80.53;;;;;;;;;;762154;179;919301;-62
2022/01/24 09:07:39;;;;;;;151.87;70.10;;;;;;;;;;769456;181;920534;-62
2022/01/24 09:10:05;;;;;;;147.80;71.03;;;;;;;;;;770748;180;919326;-62
2022/01/24 09:12:30;;;;;;;147.70;66.47;;;;;;;;;;771754;180;918727;-62
2022/01/24 09:14:56;;;;;;;143.23;76.27;;;;;;;;;;769529;179;918922;-63
2022/01/24 09:17:22;;;;;;;169.57;82.18;;;;;;;;;;771667;180;919426;-63
2022/01/24 09:19:48;;;;;;;165.13;80.90;;;;;;;;;;768902;180;919134;-63
2022/01/24 09:22:14;;;;;;;129.17;64.23;;;;;;;;;;768224;180;918203;-64
2022/01/24 09:24:40;;;;;;;118.20;58.93;;;;;;;;;;769486;181;919107;-63
2022/01/24 09:27:05;;;;;;;107.67;48.73;;;;;;;;;;778616;181;918670;-64
2022/01/24 09:29:31;;;;;;;94.83;48.60;;;;;;;;;;770829;180;919646;-65
2022/01/24 09:31:57;;;;;;;86.43;43.60;;;;;;;;;;767253;181;919912;-65
2022/01/24 09:34:23;;;;;;;78.07;40.13;;;;;;;;;;773106;180;919606;-66
2022/01/24 09:36:49;;;;;;;80.13;43.23;;;;;;;;;;765314;180;988753;-67
2022/01/24 09:39:15;;;;;;;89.60;38.40;;;;;;;;;;767954;180;920149;-67
2022/01/24 09:41:41;;;;;;;79.70;42.37;;;;;;;;;;775613;178;918215;-66
2022/01/24 09:44:06;;;;;;;122.27;42.63;;;;;;;;;;767750;183;918608;-66
2022/01/24 09:46:32;;;;;;;63.70;34.17;;;;;;;;;;762825;177;1626271;-65
2022/01/24 09:48:58;;;;;;;70.53;36.50;;;;;;;;;;771708;179;918802;-64
2022/01/24 09:51:24;;;;;;;70.80;37.87;;;;;;;;;;764475;181;919115;-64
2022/01/24 09:53:50;;;;;;;62.10;35.93;;;;;;;;;;771674;180;918379;-64
2022/01/24 09:56:17;;;;;;;73.63;39.87;;;;;;;;;;771616;178;918447;-63
2022/01/24 09:58:41;;;;;;;78.07;42.13;;;;;;;;;;776584;180;918850;-63
2022/01/24 10:01:07;;;;;;;74.97;34.57;;;;;;;;;;769879;180;919156;-63
2022/01/24 10:03:33;;;;;;;83.93;40.97;;;;;;;;;;769943;179;919685;-63
2022/01/24 10:05:59;;;;;;;66.10;31.00;;;;;;;;;;766320;180;919946;-63
2022/01/24 10:08:25;;;;;;;77.83;40.90;;;;;;;;;;769468;180;918782;-63
2022/01/24 10:10:52;;;;;;;63.40;30.93;;;;;;;;;;770196;179;919497;-63
2022/01/24 10:18:29;;;;;;;60.70;38.43;;;;;;;;;;769142;180;918413;-63
2022/01/24 10:20:55;;;;;;;51.00;29.50;;;;;;;;;;762605;180;918826;-64
2022/01/24 10:23:22;;;;;;;53.97;25.97;;;;;;;;;;772084;177;919413;-64
2022/01/24 10:25:48;;;;;;;41.63;22.80;;;;;;;;;;767352;180;924931;-62
2022/01/24 10:28:14;;;;;;;56.27;33.30;;;;;;;;;;768878;179;919384;-64
2022/01/24 10:30:39;;;;;;;50.03;24.85;;;;;;;;;;774081;180;920137;-65
2022/01/24 10:33:05;;;;;;;52.03;27.97;;;;;;;;;;774159;177;917641;-63
2022/01/24 10:35:40;;;;;;;52.10;29.57;;;;;;;;;;777589;180;918846;-64
2022/01/24 10:38:12;;;;;;;46.92;24.77;;;;;;;;;;772586;179;919582;-65
2022/01/24 10:40:48;;;;;;;45.53;24.77;;;;;;;;;;772036;180;924115;-64
2022/01/24 10:43:09;;;;;;;54.27;27.53;;;;;;;;;;765646;177;973517;-64
2022/01/24 10:45:35;;;;;;;47.50;25.98;;;;;;;;;;770210;179;919678;-62
2022/01/24 10:48:01;;;;;;;49.50;27.43;;;;;;;;;;761603;182;918994;-64
2022/01/24 10:50:28;;;;;;;46.43;23.40;;;;;;;;;;762022;180;920864;-64
2022/01/24 10:52:54;;;;;;;38.93;22.13;;;;;;;;;;775532;177;921795;-63
2022/01/24 10:55:20;;;;;;;52.07;23.67;;;;;;;;;;779916;177;916285;-63
2022/01/24 10:57:47;;;;;;;42.50;20.57;;;;;;;;;;769689;179;919814;-63
2022/01/24 11:00:14;;;;;;;40.03;21.93;;;;;;;;;;773653;178;917123;-62
2022/01/24 11:02:40;;;;;;;45.77;21.30;;;;;;;;;;779653;180;920359;-63
2022/01/24 11:05:13;;;;;;;35.97;20.90;;;;;;;;;;766178;179;917573;-63
2022/01/24 11:07:45;;;;;;;42.67;23.63;;;;;;;;;;766492;180;918915;-62
2022/01/24 11:10:11;;;;;;;74.17;32.57;;;;;;;;;;771585;181;917015;-62
2022/01/24 11:12:37;;;;;;;44.50;23.60;;;;;;;;;;776420;181;923129;-63
2022/01/24 11:15:03;;;;;;;34.93;18.20;;;;;;;;;;774105;178;920550;-63
2022/01/24 11:17:30;;;;;;;36.43;20.40;;;;;;;;;;770842;179;919962;-63
2022/01/24 11:20:00;;;;;;;43.57;19.97;;;;;;;;;;772935;178;1112372;-63
2022/01/24 11:22:20;;;;;;;40.07;21.07;;;;;;;;;;777787;180;922194;-61
2022/01/24 11:24:54;;;;;;;43.77;19.57;;;;;;;;;;773785;179;918925;-62
2022/01/24 11:27:14;;;;;;;112.32;52.28;;;;;;;;;;772777;178;920719;-61
2022/01/24 11:29:40;;;;;;;63.23;30.03;;;;;;;;;;781310;177;918919;-62
2022/01/24 11:32:11;;;;;;;52.90;27.50;;;;;;;;;;771611;180;921054;-63
2022/01/24 11:34:36;;;;;;;34.85;19.48;;;;;;;;;;772043;180;924017;-62
2022/01/24 11:37:03;;;;;;;32.83;18.43;;;;;;;;;;773533;180;918027;-62
2022/01/24 11:39:29;;;;;;;29.17;18.10;;;;;;;;;;780641;180;913519;-63
2022/01/24 11:41:55;;;;;;;44.00;16.90;;;;;;;;;;759846;181;919578;-64
2022/01/24 11:44:22;;;;;;;35.00;17.40;;;;;;;;;;762485;180;913737;-63
2022/01/24 11:46:48;;;;;;;28.50;15.40;;;;;;;;;;777240;179;913501;-62
2022/01/24 11:49:16;;;;;;;26.60;14.07;;;;;;;;;;762838;181;912973;-62
2022/01/24 11:51:42;;;;;;;26.90;15.13;;;;;;;;;;772685;180;915987;-63
2022/01/24 11:54:13;;;;;;;29.50;16.10;;;;;;;;;;773081;181;914904;-62
2022/01/24 11:56:39;;;;;;;26.20;13.67;;;;;;;;;;777895;180;919109;-62
2022/01/24 11:59:23;;;;;;;23.30;13.03;;;;;;;;;;767050;180;918527;-62
2022/01/24 12:01:54;;;;;;;18.33;10.60;;;;;;;;;;772165;177;919529;-63
2022/01/24 12:04:15;;;;;;;22.93;14.47;;;;;;;;;;772774;180;1021606;-62
2022/01/24 12:06:46;;;;;;;29.90;15.73;;;;;;;;;;780239;179;919169;-62
2022/01/24 12:09:12;;;;;;;23.10;13.87;;;;;;;;;;775351;180;918790;-64
2022/01/24 12:11:38;;;;;;;21.70;13.17;;;;;;;;;;762299;180;919769;-62
2022/01/24 12:14:11;;;;;;;24.63;13.37;;;;;;;;;;768397;181;918596;-64
2022/01/24 12:16:35;;;;;;;28.00;13.93;;;;;;;;;;779317;180;919557;-64
2022/01/24 12:19:02;;;;;;;22.53;13.93;;;;;;;;;;773831;180;919739;-64
2022/01/24 12:21:28;;;;;;;21.60;12.07;;;;;;;;;;762005;181;918986;-63
2022/01/24 12:23:54;;;;;;;22.90;11.37;;;;;;;;;;767310;181;918872;-63
2022/01/24 12:26:19;;;;;;;19.83;12.37;;;;;;;;;;779158;179;919544;-64
2022/01/24 12:28:48;;;;;;;26.07;13.03;;;;;;;;;;764383;180;1009108;-64
2022/01/24 12:31:16;;;;;;;25.70;12.73;;;;;;;;;;772096;180;918880;-63
2022/01/24 12:33:42;;;;;;;24.60;12.48;;;;;;;;;;766307;183;918887;-64
2022/01/24 12:36:07;;;;;;;18.23;11.40;;;;;;;;;;766272;181;1123910;-64
2022/01/24 12:38:48;;;;;;;23.77;12.03;;;;;;;;;;772246;181;920855;-64
2022/01/24 12:41:16;;;;;;;22.80;12.07;;;;;;;;;;774710;180;918490;-63
2022/01/24 12:43:54;;;;;;;22.60;11.50;;;;;;;;;;770453;180;919611;-65
2022/01/24 12:48:41;;;;;;;28.03;13.90;;;;;;;;;;772850;178;918817;-66
2022/01/24 12:51:07;;;;;;;25.53;14.77;;;;;;;;;;774035;179;917623;-64
2022/01/24 12:53:36;;;;;;;19.47;11.13;;;;;;;;;;778379;180;918418;-64
2022/01/24 12:56:02;;;;;;;20.90;11.00;;;;;;;;;;775060;179;918032;-65
2022/01/24 12:58:29;;;;;;;24.17;12.70;;;;;;;;;;765433;179;919082;-63
2022/01/24 13:00:55;;;;;;;26.73;15.00;;;;;;;;;;773824;180;917372;-63
2022/01/24 13:03:22;;;;;;;41.20;20.43;;;;;;;;;;778721;180;920420;-64
2022/01/24 13:05:46;;;;;;;39.50;18.97;;;;;;;;;;772403;180;919183;-64
2022/01/24 13:08:12;;;;;;;32.37;16.80;;;;;;;;;;771526;177;918925;-63
2022/01/24 13:10:38;;;;;;;33.40;19.40;;;;;;;;;;767680;180;919297;-63
2022/01/24 13:13:07;;;;;;;36.40;19.40;;;;;;;;;;767939;180;919724;-64
2022/01/24 13:23:09;;;;;;;33.37;16.90;;;;;;;;;;781679;180;608273;-63
2022/01/24 13:25:31;;;;;;;42.07;20.43;;;;;;;;;;774180;180;919395;-64
2022/01/24 13:27:57;;;;;;;33.63;18.35;;;;;;;;;;773620;180;919810;-64
2022/01/24 13:30:25;;;;;;;34.63;17.80;;;;;;;;;;780097;178;918551;-62
2022/01/24 13:32:52;;;;;;;38.70;18.03;;;;;;;;;;775316;180;918427;-64
2022/01/24 13:35:18;;;;;;;33.00;17.23;;;;;;;;;;771951;180;918943;-64
2022/01/24 13:37:45;;;;;;;39.13;17.10;;;;;;;;;;773486;180;920075;-62
2022/01/24 13:40:11;;;;;;;43.27;19.73;;;;;;;;;;769480;181;921998;-63
2022/01/24 13:42:37;;;;;;;42.73;18.93;;;;;;;;;;773987;179;924396;-64
2022/01/24 13:45:02;;;;;;;35.20;19.80;;;;;;;;;;772533;177;915263;-64
2022/01/24 13:47:28;;;;;;;34.70;17.60;;;;;;;;;;766961;181;919183;-64
2022/01/24 13:49:54;;;;;;;41.10;19.57;;;;;;;;;;771735;180;918994;-64
2022/01/24 13:52:21;;;;;;;38.70;19.10;;;;;;;;;;775349;177;918509;-65
2022/01/24 13:54:46;;;;;;;46.80;22.40;;;;;;;;;;776742;177;919571;-65
2022/01/24 13:57:12;;;;;;;43.90;21.10;;;;;;;;;;759858;181;919113;-64
2022/01/24 13:59:38;;;;;;;37.70;20.40;;;;;;;;;;773396;178;964664;-62
2022/01/24 14:02:03;;;;;;;35.10;19.07;;;;;;;;;;778774;179;918781;-64
2022/01/24 14:04:31;;;;;;;37.97;20.53;;;;;;;;;;770695;179;1023973;-64
2022/01/24 14:06:57;;;;;;;36.10;20.40;;;;;;;;;;771544;180;920314;-64
2022/01/24 14:09:23;;;;;;;32.33;17.08;;;;;;;;;;771412;179;919232;-64
2022/01/24 14:11:49;;;;;;;34.77;17.50;;;;;;;;;;764233;181;1020939;-66
2022/01/24 14:14:18;;;;;;;33.83;18.80;;;;;;;;;;763057;181;920143;-63
2022/01/24 14:16:53;;;;;;;42.70;19.30;;;;;;;;;;772835;178;919277;-64
2022/01/24 14:19:10;;;;;;;34.30;18.70;;;;;;;;;;775709;180;1020330;-64
2022/01/24 14:21:36;;;;;;;29.67;18.63;;;;;;;;;;771398;181;921125;-64
2022/01/24 14:24:02;;;;;;;36.57;19.63;;;;;;;;;;771714;180;918589;-64
2022/01/24 14:26:28;;;;;;;40.20;19.40;;;;;;;;;;773203;180;919609;-63
2022/01/24 14:28:59;;;;;;;34.07;18.70;;;;;;;;;;777373;180;919357;-62
2022/01/24 14:31:26;;;;;;;36.00;20.80;;;;;;;;;;772356;177;919571;-64
2022/01/24 14:33:52;;;;;;;37.07;18.27;;;;;;;;;;770774;179;919225;-63
2022/01/24 14:36:18;;;;;;;37.13;19.40;;;;;;;;;;778492;180;918552;-64
2022/01/24 14:38:44;;;;;;;36.20;16.97;;;;;;;;;;771353;180;1021477;-64
2022/01/24 14:41:17;;;;;;;38.93;17.30;;;;;;;;;;771495;180;920048;-63
2022/01/24 14:46:12;;;;;;;36.63;20.23;;;;;;;;;;778714;179;919277;-64
2022/01/24 14:48:44;;;;;;;35.20;18.92;;;;;;;;;;772756;178;919398;-63
2022/01/24 14:51:09;;;;;;;37.40;18.10;;;;;;;;;;773872;177;914482;-63
2022/01/24 14:53:35;;;;;;;31.02;17.30;;;;;;;;;;772203;180;916878;-64
2022/01/24 14:56:01;;;;;;;27.27;15.50;;;;;;;;;;776664;180;1039289;-64
2022/01/24 14:58:27;;;;;;;27.03;15.47;;;;;;;;;;763110;181;937660;-63
2022/01/24 15:00:53;;;;;;;30.30;16.47;;;;;;;;;;771552;181;918811;-64
2022/01/24 15:03:19;;;;;;;24.80;13.23;;;;;;;;;;778270;178;918613;-63
2022/01/24 15:05:44;;;;;;;26.77;14.50;;;;;;;;;;767469;181;907120;-64
2022/01/24 15:08:10;;;;;;;30.30;15.33;;;;;;;;;;774469;180;920431;-64
2022/01/24 15:10:36;;;;;;;35.00;16.13;;;;;;;;;;778228;180;914766;-62
2022/01/24 15:13:06;;;;;;;30.40;16.00;;;;;;;;;;773597;180;920045;-64
2022/01/24 15:15:29;;;;;;;32.93;16.73;;;;;;;;;;768685;179;919624;-63
2022/01/24 15:23:59;;;;;;;32.87;16.43;;;;;;;;;;770493;180;919028;-62
2022/01/24 15:25:32;;;;;;;34.40;17.67;;;;;;;;;;760602;182;920194;-63
2022/01/24 15:27:52;;;;;;;47.03;19.70;;;;;;;;;;773391;181;713554;-64
2022/01/24 15:30:17;;;;;;;34.33;18.60;;;;;;;;;;781517;177;635670;-64
2022/01/24 15:32:43;;;;;;;37.20;19.50;;;;;;;;;;772192;181;637832;-63
2022/01/24 15:35:09;;;;;;;35.70;19.43;;;;;;;;;;777693;180;635012;-63